OOCL Chicago — VRWQ2 — position and weather

sailwx.info

Track history (hours):
 
Tides and Currents Weather Stations Pressure Air Temp Water Temp Dewpoint Dewpoint Depression Visibility Wind Speed Wind Dir Waves Ship Positions

OOCL Chicago

Last reported at 2018-Feb-22 02:58 UTC. Time now 2018-Feb-22 03:24 UTC.
Position S 39°01' E 147°27'.

Length 277.4 m; beam 40 m; draft 14 m.

Type: Ship (hazmat cat A). MMSI: 477825000.

Date/timePositionNaut miles runAvg speedWind from/ knotsBaromVisibWave heightAir tempDewpointWater temp
2018-Feb-22 02:58S 39°01' E 147°27'612.4
2018-Feb-22 02:27S 39°03' E 147°19'612.4
2018-Feb-22 02:00S 39°05' E 147°12'612.4
2018-Feb-22 01:30S 39°07' E 147°05'712.3
2018-Feb-22 00:59S 39°09' E 146°57'612.4
2018-Feb-22 00:30S 39°11' E 146°50'612.4
2018-Feb-22 00:00S 39°14' E 146°42'612.1
2018-Feb-21 23:30S 39°16' E 146°35'612.2
2018-Feb-21 22:59S 39°17' E 146°27'612.4
2018-Feb-21 22:30S 39°17' E 146°19'611.9
2018-Feb-21 21:59S 39°15' E 146°12'612.1
2018-Feb-21 21:30S 39°12' E 146°06'612.1
2018-Feb-21 21:00S 39°08' E 145°59'612.3
2018-Feb-21 20:30S 39°05' E 145°53'612.5
2018-Feb-21 20:00S 39°01' E 145°46'612.5
2018-Feb-21 19:30S 38°58' E 145°39'612.3
2018-Feb-21 19:00S 38°54' E 145°33'612.3
2018-Feb-21 18:30S 38°51' E 145°26'612.2
2018-Feb-21 18:00S 38°47' E 145°20'612.2
2018-Feb-21 17:30S 38°44' E 145°14'612.5
2018-Feb-21 17:00S 38°40' E 145°07'612.5
2018-Feb-21 16:30S 38°37' E 145°00'612.3
2018-Feb-21 16:00S 38°33' E 144°54'613.0
2018-Feb-21 15:30S 38°29' E 144°47'612.8
2018-Feb-21 15:00S 38°25' E 144°41'712.3
2018-Feb-21 14:25S 38°20' E 144°35'615.1
2018-Feb-21 14:00S 38°18' E 144°43'1612.6
2018-Feb-21 12:44S 38°05' E 144°55'419.9
2018-Feb-21 12:30S 38°01' E 144°55'814.9
2018-Feb-21 11:58S 37°53' E 144°56'3 7.0
2018-Feb-21 11:29S 37°49' E 144°54'1 0.0
2018-Feb-20 17:19S 37°49' E 144°55'0 0.0
2018-Feb-20 15:04S 37°49' E 144°55'0 0.1
2018-Feb-20 14:58S 37°49' E 144°55'0 0.0
2018-Feb-20 14:22S 37°49' E 144°55'0 0.0
2018-Feb-20 13:58S 37°49' E 144°55'0 0.0
2018-Feb-20 13:04S 37°49' E 144°55'0 0.0
2018-Feb-20 12:46S 37°49' E 144°55'0 0.0
2018-Feb-19 03:49S 37°49' E 144°55'2 2.9
2018-Feb-19 03:18S 37°50' E 144°54'1011.2
2018-Feb-19 02:26S 37°60' E 144°55'17810.5
2018-Feb-18 09:26S 38°28' E 148°40'1019.9
2018-Feb-18 08:57S 38°22' E 148°50'920.0
2018-Feb-18 08:30S 38°17' E 148°59'1019.9
2018-Feb-18 08:00S 38°11' E 149°09'1319.7
2018-Feb-18 07:19S 38°03' E 149°22'719.7
2018-Feb-18 06:58S 37°59' E 149°30'919.4
2018-Feb-18 06:31S 37°54' E 149°39'1019.9
2018-Feb-18 05:59S 37°47' E 149°49'1019.3
2018-Feb-18 05:28S 37°39' E 149°57'  
2018-Feb-15 19:23S 33°58' E 151°13'0 0.0
2018-Feb-15 18:58S 33°58' E 151°13'1 0.7
2018-Feb-15 18:10S 33°59' E 151°12'2 6.2
2018-Feb-15 17:53S 33°60' E 151°14'4 9.3
2018-Feb-15 17:30S 34°01' E 151°18'5 8.7
2018-Feb-15 16:54S 33°58' E 151°23'717.6
2018-Feb-15 16:31S 33°53' E 151°28'815.3
2018-Feb-15 16:00S 33°46' E 151°34'814.7
2018-Feb-15 15:25S 33°40' E 151°40'3415.3
2018-Feb-15 13:11S 33°13' E 152°05'715.2
2018-Feb-15 12:41S 33°07' E 152°11'315.1
2018-Feb-15 12:30S 33°04' E 152°12'815.1
2018-Feb-15 12:01S 32°58' E 152°18'714.8
2018-Feb-15 11:30S 32°52' E 152°23'714.8
2018-Feb-15 11:00S 32°46' E 152°28'714.8
2018-Feb-15 10:30S 32°40' E 152°33'714.9
2018-Feb-15 10:01S 32°34' E 152°37'815.2
2018-Feb-15 09:30S 32°27' E 152°40'1515.3
2018-Feb-15 08:32S 32°13' E 152°47'1215.3
2018-Feb-15 07:46S 32°02' E 152°52'3515.4
2018-Feb-15 05:30S 31°29' E 153°08'17616.5
2018-Feb-14 18:52S 28°38' E 153°53'717.6
2018-Feb-14 18:27S 28°31' E 153°53'817.3
2018-Feb-14 18:00S 28°23' E 153°54'917.4
2018-Feb-14 17:30S 28°14' E 153°54'917.1
2018-Feb-14 16:58S 28°05' E 153°55'816.9
2018-Feb-14 16:30S 27°58' E 153°56'816.6
2018-Feb-14 16:00S 27°49' E 153°56'816.6
2018-Feb-14 15:30S 27°41' E 153°56'816.7
2018-Feb-14 15:00S 27°33' E 153°56'816.5
2018-Feb-14 14:30S 27°24' E 153°56'816.4
2018-Feb-14 14:00S 27°16' E 153°57'916.6
2018-Feb-14 13:29S 27°08' E 153°57'816.4
2018-Feb-14 13:00S 26°60' E 153°57'816.5
2018-Feb-14 12:30S 26°52' E 153°58'816.6
2018-Feb-14 12:00S 26°43' E 153°58'816.6
2018-Feb-14 11:30S 26°35' E 153°59'816.0
2018-Feb-14 10:59S 26°27' E 153°59'917.0
2018-Feb-14 10:26S 26°17' E 153°60'916.7
2018-Feb-14 09:53S 26°08' E 154°00'616.7
2018-Feb-14 09:30S 26°02' E 154°00'816.7
2018-Feb-14 09:00S 25°54' E 154°01'916.6
2018-Feb-14 08:27S 25°44' E 154°01'  
Track history (hours):
 
Tides and Currents Weather Stations Pressure Air Temp Water Temp Dewpoint Dewpoint Depression Visibility Wind Speed Wind Dir Waves Ship Positions

OOCL Chicago

Last reported at 2018-Feb-22 02:58 UTC. Time now 2018-Feb-22 03:24 UTC.
Position S 39°01' E 147°27'.

Length 277.4 m; beam 40 m; draft 14 m.

Type: Ship (hazmat cat A). MMSI: 477825000.

Date/timePositionNaut miles runAvg speedWind from/ knotsBaromVisibWave heightAir tempDewpointWater temp
2018-Feb-22 02:58S 39°01' E 147°27'612.4
2018-Feb-22 02:27S 39°03' E 147°19'612.4
2018-Feb-22 02:00S 39°05' E 147°12'612.4
2018-Feb-22 01:30S 39°07' E 147°05'712.3
2018-Feb-22 00:59S 39°09' E 146°57'612.4
2018-Feb-22 00:30S 39°11' E 146°50'612.4
2018-Feb-22 00:00S 39°14' E 146°42'612.1
2018-Feb-21 23:30S 39°16' E 146°35'612.2
2018-Feb-21 22:59S 39°17' E 146°27'612.4
2018-Feb-21 22:30S 39°17' E 146°19'611.9
2018-Feb-21 21:59S 39°15' E 146°12'612.1
2018-Feb-21 21:30S 39°12' E 146°06'612.1
2018-Feb-21 21:00S 39°08' E 145°59'612.3
2018-Feb-21 20:30S 39°05' E 145°53'612.5
2018-Feb-21 20:00S 39°01' E 145°46'612.5
2018-Feb-21 19:30S 38°58' E 145°39'612.3
2018-Feb-21 19:00S 38°54' E 145°33'612.3
2018-Feb-21 18:30S 38°51' E 145°26'612.2
2018-Feb-21 18:00S 38°47' E 145°20'612.2
2018-Feb-21 17:30S 38°44' E 145°14'612.5
2018-Feb-21 17:00S 38°40' E 145°07'612.5
2018-Feb-21 16:30S 38°37' E 145°00'612.3
2018-Feb-21 16:00S 38°33' E 144°54'613.0
2018-Feb-21 15:30S 38°29' E 144°47'612.8
2018-Feb-21 15:00S 38°25' E 144°41'712.3
2018-Feb-21 14:25S 38°20' E 144°35'615.1
2018-Feb-21 14:00S 38°18' E 144°43'1612.6
2018-Feb-21 12:44S 38°05' E 144°55'419.9
2018-Feb-21 12:30S 38°01' E 144°55'814.9
2018-Feb-21 11:58S 37°53' E 144°56'3 7.0
2018-Feb-21 11:29S 37°49' E 144°54'1 0.0
2018-Feb-20 17:19S 37°49' E 144°55'0 0.0
2018-Feb-20 15:04S 37°49' E 144°55'0 0.1
2018-Feb-20 14:58S 37°49' E 144°55'0 0.0
2018-Feb-20 14:22S 37°49' E 144°55'0 0.0
2018-Feb-20 13:58S 37°49' E 144°55'0 0.0
2018-Feb-20 13:04S 37°49' E 144°55'0 0.0
2018-Feb-20 12:46S 37°49' E 144°55'0 0.0
2018-Feb-19 03:49S 37°49' E 144°55'2 2.9
2018-Feb-19 03:18S 37°50' E 144°54'1011.2
2018-Feb-19 02:26S 37°60' E 144°55'17810.5
2018-Feb-18 09:26S 38°28' E 148°40'1019.9
2018-Feb-18 08:57S 38°22' E 148°50'920.0
2018-Feb-18 08:30S 38°17' E 148°59'1019.9
2018-Feb-18 08:00S 38°11' E 149°09'1319.7
2018-Feb-18 07:19S 38°03' E 149°22'719.7
2018-Feb-18 06:58S 37°59' E 149°30'919.4
2018-Feb-18 06:31S 37°54' E 149°39'1019.9
2018-Feb-18 05:59S 37°47' E 149°49'1019.3
2018-Feb-18 05:28S 37°39' E 149°57'  
2018-Feb-15 19:23S 33°58' E 151°13'0 0.0
2018-Feb-15 18:58S 33°58' E 151°13'1 0.7
2018-Feb-15 18:10S 33°59' E 151°12'2 6.2
2018-Feb-15 17:53S 33°60' E 151°14'4 9.3
2018-Feb-15 17:30S 34°01' E 151°18'5 8.7
2018-Feb-15 16:54S 33°58' E 151°23'717.6
2018-Feb-15 16:31S 33°53' E 151°28'815.3
2018-Feb-15 16:00S 33°46' E 151°34'814.7
2018-Feb-15 15:25S 33°40' E 151°40'3415.3
2018-Feb-15 13:11S 33°13' E 152°05'715.2
2018-Feb-15 12:41S 33°07' E 152°11'315.1
2018-Feb-15 12:30S 33°04' E 152°12'815.1
2018-Feb-15 12:01S 32°58' E 152°18'714.8
2018-Feb-15 11:30S 32°52' E 152°23'714.8
2018-Feb-15 11:00S 32°46' E 152°28'714.8
2018-Feb-15 10:30S 32°40' E 152°33'714.9
2018-Feb-15 10:01S 32°34' E 152°37'815.2
2018-Feb-15 09:30S 32°27' E 152°40'1515.3
2018-Feb-15 08:32S 32°13' E 152°47'1215.3
2018-Feb-15 07:46S 32°02' E 152°52'3515.4
2018-Feb-15 05:30S 31°29' E 153°08'17616.5
2018-Feb-14 18:52S 28°38' E 153°53'717.6
2018-Feb-14 18:27S 28°31' E 153°53'817.3
2018-Feb-14 18:00S 28°23' E 153°54'917.4
2018-Feb-14 17:30S 28°14' E 153°54'917.1
2018-Feb-14 16:58S 28°05' E 153°55'816.9
2018-Feb-14 16:30S 27°58' E 153°56'816.6
2018-Feb-14 16:00S 27°49' E 153°56'816.6
2018-Feb-14 15:30S 27°41' E 153°56'816.7
2018-Feb-14 15:00S 27°33' E 153°56'816.5
2018-Feb-14 14:30S 27°24' E 153°56'816.4
2018-Feb-14 14:00S 27°16' E 153°57'916.6
2018-Feb-14 13:29S 27°08' E 153°57'816.4
2018-Feb-14 13:00S 26°60' E 153°57'816.5
2018-Feb-14 12:30S 26°52' E 153°58'816.6
2018-Feb-14 12:00S 26°43' E 153°58'816.6
2018-Feb-14 11:30S 26°35' E 153°59'816.0
2018-Feb-14 10:59S 26°27' E 153°59'917.0
2018-Feb-14 10:26S 26°17' E 153°60'916.7
2018-Feb-14 09:53S 26°08' E 154°00'616.7
2018-Feb-14 09:30S 26°02' E 154°00'816.7
2018-Feb-14 09:00S 25°54' E 154°01'916.6
2018-Feb-14 08:27S 25°44' E 154°01'  

Dump ship's entire track history